sensor_id;sensor_type;location;lat;lon;timestamp;P1;durP1;ratioP1;P2;durP2;ratioP2
3155;SDS011;1588;50.892;7.082;2023-03-04T00:04:00;106.40;;;27.20;;
3155;SDS011;1588;50.892;7.082;2023-03-04T00:09:02;99.67;;;26.30;;
3155;SDS011;1588;50.892;7.082;2023-03-04T00:14:06;97.93;;;26.50;;
3155;SDS011;1588;50.892;7.082;2023-03-04T00:19:09;106.87;;;27.30;;
3155;SDS011;1588;50.892;7.082;2023-03-04T00:24:12;108.87;;;27.17;;
3155;SDS011;1588;50.892;7.082;2023-03-04T00:29:17;107.30;;;26.30;;
3155;SDS011;1588;50.892;7.082;2023-03-04T00:34:21;90.10;;;25.20;;
3155;SDS011;1588;50.892;7.082;2023-03-04T00:39:24;112.10;;;24.13;;
3155;SDS011;1588;50.892;7.082;2023-03-04T00:44:32;105.60;;;26.87;;
3155;SDS011;1588;50.892;7.082;2023-03-04T00:49:34;87.97;;;24.80;;
3155;SDS011;1588;50.892;7.082;2023-03-04T00:54:37;102.03;;;27.40;;
3155;SDS011;1588;50.892;7.082;2023-03-04T00:59:42;110.67;;;26.17;;
3155;SDS011;1588;50.892;7.082;2023-03-04T01:04:46;122.23;;;27.80;;
3155;SDS011;1588;50.892;7.082;2023-03-04T01:09:49;111.50;;;28.57;;
3155;SDS011;1588;50.892;7.082;2023-03-04T01:14:52;108.60;;;25.47;;
3155;SDS011;1588;50.892;7.082;2023-03-04T01:19:55;97.67;;;27.27;;
3155;SDS011;1588;50.892;7.082;2023-03-04T01:24:57;101.60;;;26.07;;
3155;SDS011;1588;50.892;7.082;2023-03-04T01:30:01;101.87;;;25.97;;
3155;SDS011;1588;50.892;7.082;2023-03-04T01:35:03;110.97;;;27.80;;
3155;SDS011;1588;50.892;7.082;2023-03-04T01:40:12;97.90;;;26.50;;
3155;SDS011;1588;50.892;7.082;2023-03-04T01:45:16;102.77;;;28.50;;
3155;SDS011;1588;50.892;7.082;2023-03-04T01:50:21;121.40;;;29.20;;
3155;SDS011;1588;50.892;7.082;2023-03-04T01:55:28;117.07;;;27.63;;
3155;SDS011;1588;50.892;7.082;2023-03-04T02:00:33;114.20;;;27.67;;
3155;SDS011;1588;50.892;7.082;2023-03-04T02:05:37;109.90;;;28.50;;
3155;SDS011;1588;50.892;7.082;2023-03-04T02:10:42;103.93;;;27.07;;
3155;SDS011;1588;50.892;7.082;2023-03-04T02:15:47;113.80;;;26.93;;
3155;SDS011;1588;50.892;7.082;2023-03-04T02:20:53;122.87;;;28.57;;
3155;SDS011;1588;50.892;7.082;2023-03-04T02:26:10;93.33;;;25.90;;
3155;SDS011;1588;50.892;7.082;2023-03-04T02:31:19;100.37;;;27.80;;
3155;SDS011;1588;50.892;7.082;2023-03-04T02:36:25;98.10;;;28.20;;
3155;SDS011;1588;50.892;7.082;2023-03-04T02:41:32;103.37;;;24.10;;
3155;SDS011;1588;50.892;7.082;2023-03-04T02:46:35;101.43;;;26.40;;
3155;SDS011;1588;50.892;7.082;2023-03-04T02:51:37;105.43;;;26.50;;
3155;SDS011;1588;50.892;7.082;2023-03-04T02:56:44;104.87;;;27.40;;
3155;SDS011;1588;50.892;7.082;2023-03-04T03:01:47;106.43;;;27.30;;
3155;SDS011;1588;50.892;7.082;2023-03-04T03:06:49;101.40;;;25.40;;
3155;SDS011;1588;50.892;7.082;2023-03-04T03:11:53;103.90;;;25.77;;
3155;SDS011;1588;50.892;7.082;2023-03-04T03:16:56;108.47;;;28.60;;
3155;SDS011;1588;50.892;7.082;2023-03-04T03:21:58;115.40;;;26.73;;
3155;SDS011;1588;50.892;7.082;2023-03-04T03:27:02;109.97;;;26.30;;
3155;SDS011;1588;50.892;7.082;2023-03-04T03:32:04;89.03;;;26.20;;
3155;SDS011;1588;50.892;7.082;2023-03-04T03:37:10;106.07;;;27.00;;
3155;SDS011;1588;50.892;7.082;2023-03-04T03:42:14;98.17;;;26.13;;
3155;SDS011;1588;50.892;7.082;2023-03-04T03:47:16;107.90;;;28.87;;
3155;SDS011;1588;50.892;7.082;2023-03-04T03:52:18;100.60;;;25.60;;
3155;SDS011;1588;50.892;7.082;2023-03-04T03:57:22;105.03;;;27.03;;
3155;SDS011;1588;50.892;7.082;2023-03-04T04:02:27;109.13;;;25.70;;
3155;SDS011;1588;50.892;7.082;2023-03-04T04:07:30;112.40;;;29.10;;
3155;SDS011;1588;50.892;7.082;2023-03-04T04:12:35;102.13;;;26.70;;
3155;SDS011;1588;50.892;7.082;2023-03-04T04:17:37;96.30;;;25.27;;
3155;SDS011;1588;50.892;7.082;2023-03-04T04:22:40;91.27;;;23.73;;
3155;SDS011;1588;50.892;7.082;2023-03-04T04:27:43;96.90;;;25.90;;
3155;SDS011;1588;50.892;7.082;2023-03-04T04:32:46;101.00;;;24.47;;
3155;SDS011;1588;50.892;7.082;2023-03-04T04:37:48;87.70;;;25.10;;
3155;SDS011;1588;50.892;7.082;2023-03-04T04:42:51;100.50;;;26.60;;
3155;SDS011;1588;50.892;7.082;2023-03-04T04:48:00;84.03;;;24.87;;
3155;SDS011;1588;50.892;7.082;2023-03-04T04:53:02;110.07;;;25.77;;
3155;SDS011;1588;50.892;7.082;2023-03-04T04:58:06;99.50;;;25.47;;
3155;SDS011;1588;50.892;7.082;2023-03-04T05:03:08;104.80;;;26.60;;
3155;SDS011;1588;50.892;7.082;2023-03-04T05:08:10;104.33;;;26.37;;
3155;SDS011;1588;50.892;7.082;2023-03-04T05:13:15;96.00;;;27.33;;
3155;SDS011;1588;50.892;7.082;2023-03-04T05:18:18;102.83;;;27.90;;
3155;SDS011;1588;50.892;7.082;2023-03-04T05:23:21;92.87;;;24.03;;
3155;SDS011;1588;50.892;7.082;2023-03-04T05:28:25;92.67;;;24.07;;
3155;SDS011;1588;50.892;7.082;2023-03-04T05:33:28;110.07;;;25.73;;
3155;SDS011;1588;50.892;7.082;2023-03-04T05:38:30;96.90;;;27.47;;
3155;SDS011;1588;50.892;7.082;2023-03-04T05:43:35;96.73;;;23.80;;
3155;SDS011;1588;50.892;7.082;2023-03-04T05:48:52;85.00;;;24.00;;
3155;SDS011;1588;50.892;7.082;2023-03-04T05:53:55;97.53;;;24.30;;
3155;SDS011;1588;50.892;7.082;2023-03-04T05:59:00;98.13;;;24.00;;
3155;SDS011;1588;50.892;7.082;2023-03-04T06:04:02;105.80;;;26.30;;
3155;SDS011;1588;50.892;7.082;2023-03-04T06:09:05;92.20;;;23.80;;
3155;SDS011;1588;50.892;7.082;2023-03-04T06:14:11;90.67;;;25.70;;
3155;SDS011;1588;50.892;7.082;2023-03-04T06:19:14;95.33;;;25.07;;
3155;SDS011;1588;50.892;7.082;2023-03-04T06:24:16;107.50;;;25.73;;
3155;SDS011;1588;50.892;7.082;2023-03-04T06:29:20;73.40;;;23.30;;
3155;SDS011;1588;50.892;7.082;2023-03-04T06:34:22;90.50;;;23.80;;
3155;SDS011;1588;50.892;7.082;2023-03-04T06:39:25;97.93;;;23.10;;
3155;SDS011;1588;50.892;7.082;2023-03-04T06:44:29;93.13;;;24.37;;
3155;SDS011;1588;50.892;7.082;2023-03-04T06:49:31;72.47;;;21.37;;
3155;SDS011;1588;50.892;7.082;2023-03-04T06:54:34;96.67;;;24.07;;
3155;SDS011;1588;50.892;7.082;2023-03-04T06:59:38;89.57;;;22.13;;
3155;SDS011;1588;50.892;7.082;2023-03-04T07:04:50;81.50;;;23.40;;
3155;SDS011;1588;50.892;7.082;2023-03-04T07:09:54;93.03;;;24.07;;
3155;SDS011;1588;50.892;7.082;2023-03-04T07:14:57;88.77;;;23.03;;
3155;SDS011;1588;50.892;7.082;2023-03-04T07:20:00;77.47;;;21.90;;
3155;SDS011;1588;50.892;7.082;2023-03-04T07:25:02;88.43;;;24.20;;
3155;SDS011;1588;50.892;7.082;2023-03-04T07:30:08;83.23;;;23.57;;
3155;SDS011;1588;50.892;7.082;2023-03-04T07:35:11;80.67;;;20.47;;
3155;SDS011;1588;50.892;7.082;2023-03-04T07:40:17;67.73;;;22.57;;
3155;SDS011;1588;50.892;7.082;2023-03-04T07:45:22;86.03;;;23.53;;
3155;SDS011;1588;50.892;7.082;2023-03-04T07:50:24;76.23;;;22.50;;
3155;SDS011;1588;50.892;7.082;2023-03-04T07:55:26;85.23;;;22.20;;
3155;SDS011;1588;50.892;7.082;2023-03-04T08:00:32;105.07;;;23.43;;
3155;SDS011;1588;50.892;7.082;2023-03-04T08:05:34;97.63;;;24.00;;
3155;SDS011;1588;50.892;7.082;2023-03-04T08:10:45;91.00;;;22.87;;
3155;SDS011;1588;50.892;7.082;2023-03-04T08:15:51;85.87;;;21.03;;
3155;SDS011;1588;50.892;7.082;2023-03-04T08:20:56;78.67;;;21.03;;
3155;SDS011;1588;50.892;7.082;2023-03-04T08:25:58;83.57;;;20.50;;
3155;SDS011;1588;50.892;7.082;2023-03-04T08:31:02;67.37;;;20.67;;
3155;SDS011;1588;50.892;7.082;2023-03-04T08:36:05;76.17;;;22.13;;
3155;SDS011;1588;50.892;7.082;2023-03-04T08:41:09;87.23;;;21.07;;
3155;SDS011;1588;50.892;7.082;2023-03-04T08:46:13;80.23;;;22.80;;
3155;SDS011;1588;50.892;7.082;2023-03-04T08:51:15;76.80;;;22.33;;
3155;SDS011;1588;50.892;7.082;2023-03-04T08:56:18;90.87;;;20.80;;
3155;SDS011;1588;50.892;7.082;2023-03-04T09:01:21;39.80;;;11.47;;
3155;SDS011;1588;50.892;7.082;2023-03-04T09:06:24;12.50;;;5.17;;
3155;SDS011;1588;50.892;7.082;2023-03-04T09:11:26;10.07;;;3.27;;
3155;SDS011;1588;50.892;7.082;2023-03-04T09:16:32;9.90;;;3.13;;
3155;SDS011;1588;50.892;7.082;2023-03-04T09:21:36;11.60;;;3.57;;
3155;SDS011;1588;50.892;7.082;2023-03-04T09:26:38;24.23;;;3.67;;
3155;SDS011;1588;50.892;7.082;2023-03-04T09:31:42;15.20;;;3.33;;
3155;SDS011;1588;50.892;7.082;2023-03-04T09:36:44;10.97;;;3.40;;
3155;SDS011;1588;50.892;7.082;2023-03-04T09:41:48;10.20;;;2.83;;
3155;SDS011;1588;50.892;7.082;2023-03-04T09:47:02;19.60;;;3.37;;
3155;SDS011;1588;50.892;7.082;2023-03-04T09:52:09;18.10;;;5.07;;
3155;SDS011;1588;50.892;7.082;2023-03-04T09:57:21;12.70;;;3.27;;
3155;SDS011;1588;50.892;7.082;2023-03-04T10:02:31;16.90;;;5.83;;
3155;SDS011;1588;50.892;7.082;2023-03-04T10:07:47;10.63;;;4.60;;
3155;SDS011;1588;50.892;7.082;2023-03-04T10:12:56;8.47;;;3.57;;
3155;SDS011;1588;50.892;7.082;2023-03-04T10:18:02;5.50;;;3.10;;
3155;SDS011;1588;50.892;7.082;2023-03-04T10:23:14;18.83;;;3.37;;
3155;SDS011;1588;50.892;7.082;2023-03-04T10:28:20;16.30;;;3.47;;
3155;SDS011;1588;50.892;7.082;2023-03-04T10:33:28;11.80;;;4.17;;
3155;SDS011;1588;50.892;7.082;2023-03-04T10:38:33;18.87;;;3.07;;
3155;SDS011;1588;50.892;7.082;2023-03-04T10:43:36;12.53;;;3.53;;
3155;SDS011;1588;50.892;7.082;2023-03-04T10:48:41;13.53;;;6.10;;
3155;SDS011;1588;50.892;7.082;2023-03-04T10:53:44;22.80;;;6.30;;
3155;SDS011;1588;50.892;7.082;2023-03-04T10:58:49;13.83;;;5.03;;
3155;SDS011;1588;50.892;7.082;2023-03-04T11:03:53;6.50;;;2.63;;
3155;SDS011;1588;50.892;7.082;2023-03-04T11:09:04;6.07;;;2.57;;
3155;SDS011;1588;50.892;7.082;2023-03-04T11:14:20;5.23;;;2.50;;
3155;SDS011;1588;50.892;7.082;2023-03-04T11:19:30;8.40;;;3.40;;
3155;SDS011;1588;50.892;7.082;2023-03-04T11:24:38;9.40;;;3.30;;
3155;SDS011;1588;50.892;7.082;2023-03-04T11:29:42;9.37;;;3.10;;
3155;SDS011;1588;50.892;7.082;2023-03-04T11:34:50;6.53;;;2.70;;
3155;SDS011;1588;50.892;7.082;2023-03-04T11:40:00;7.90;;;2.57;;
3155;SDS011;1588;50.892;7.082;2023-03-04T11:45:07;4.83;;;2.50;;
3155;SDS011;1588;50.892;7.082;2023-03-04T11:50:31;8.93;;;2.77;;
3155;SDS011;1588;50.892;7.082;2023-03-04T11:55:45;4.30;;;1.90;;
3155;SDS011;1588;50.892;7.082;2023-03-04T12:00:53;6.00;;;2.50;;
3155;SDS011;1588;50.892;7.082;2023-03-04T12:06:03;5.83;;;3.30;;
3155;SDS011;1588;50.892;7.082;2023-03-04T12:11:11;7.57;;;3.07;;
3155;SDS011;1588;50.892;7.082;2023-03-04T12:16:29;7.13;;;2.30;;
3155;SDS011;1588;50.892;7.082;2023-03-04T12:21:57;9.37;;;3.43;;
3155;SDS011;1588;50.892;7.082;2023-03-04T12:27:10;10.07;;;4.20;;
3155;SDS011;1588;50.892;7.082;2023-03-04T12:32:23;5.17;;;2.00;;
3155;SDS011;1588;50.892;7.082;2023-03-04T12:37:42;3.93;;;1.93;;
3155;SDS011;1588;50.892;7.082;2023-03-04T12:42:58;4.50;;;1.80;;
3155;SDS011;1588;50.892;7.082;2023-03-04T12:48:16;9.80;;;2.20;;
3155;SDS011;1588;50.892;7.082;2023-03-04T12:53:31;4.03;;;1.80;;
3155;SDS011;1588;50.892;7.082;2023-03-04T12:58:38;2.70;;;1.53;;
3155;SDS011;1588;50.892;7.082;2023-03-04T13:03:40;5.20;;;1.77;;
3155;SDS011;1588;50.892;7.082;2023-03-04T13:08:57;4.80;;;1.70;;
3155;SDS011;1588;50.892;7.082;2023-03-04T13:14:05;11.63;;;2.70;;
3155;SDS011;1588;50.892;7.082;2023-03-04T13:19:41;6.17;;;2.40;;
3155;SDS011;1588;50.892;7.082;2023-03-04T13:24:53;5.23;;;2.43;;
3155;SDS011;1588;50.892;7.082;2023-03-04T13:29:56;5.73;;;2.33;;
3155;SDS011;1588;50.892;7.082;2023-03-04T13:34:59;3.17;;;1.50;;
3155;SDS011;1588;50.892;7.082;2023-03-04T13:40:28;5.47;;;1.37;;
3155;SDS011;1588;50.892;7.082;2023-03-04T13:45:34;2.80;;;1.30;;
3155;SDS011;1588;50.892;7.082;2023-03-04T13:50:43;6.70;;;1.73;;
3155;SDS011;1588;50.892;7.082;2023-03-04T13:56:04;3.23;;;1.53;;
3155;SDS011;1588;50.892;7.082;2023-03-04T14:01:19;1.70;;;1.50;;
3155;SDS011;1588;50.892;7.082;2023-03-04T14:06:43;3.30;;;1.50;;
3155;SDS011;1588;50.892;7.082;2023-03-04T14:12:31;11.63;;;1.60;;
3155;SDS011;1588;50.892;7.082;2023-03-04T14:17:36;2.70;;;1.63;;
3155;SDS011;1588;50.892;7.082;2023-03-04T14:22:41;2.43;;;1.23;;
3155;SDS011;1588;50.892;7.082;2023-03-04T14:27:45;8.87;;;1.80;;
3155;SDS011;1588;50.892;7.082;2023-03-04T14:32:48;4.23;;;1.20;;
3155;SDS011;1588;50.892;7.082;2023-03-04T14:37:53;5.80;;;1.80;;
3155;SDS011;1588;50.892;7.082;2023-03-04T14:43:01;2.80;;;1.50;;
3155;SDS011;1588;50.892;7.082;2023-03-04T14:48:19;2.50;;;1.63;;
3155;SDS011;1588;50.892;7.082;2023-03-04T14:53:24;8.63;;;1.73;;
3155;SDS011;1588;50.892;7.082;2023-03-04T14:58:54;8.37;;;3.43;;
3155;SDS011;1588;50.892;7.082;2023-03-04T15:03:59;6.17;;;2.33;;
3155;SDS011;1588;50.892;7.082;2023-03-04T15:09:04;12.30;;;3.60;;
3155;SDS011;1588;50.892;7.082;2023-03-04T15:19:45;11.67;;;3.37;;
3155;SDS011;1588;50.892;7.082;2023-03-04T15:24:59;4.60;;;2.17;;
3155;SDS011;1588;50.892;7.082;2023-03-04T15:30:05;3.33;;;1.97;;
3155;SDS011;1588;50.892;7.082;2023-03-04T15:35:16;4.23;;;2.20;;
3155;SDS011;1588;50.892;7.082;2023-03-04T15:40:23;10.70;;;2.90;;
3155;SDS011;1588;50.892;7.082;2023-03-04T15:45:29;4.50;;;2.70;;
3155;SDS011;1588;50.892;7.082;2023-03-04T15:50:36;3.70;;;2.23;;
3155;SDS011;1588;50.892;7.082;2023-03-04T15:55:40;6.87;;;3.40;;
3155;SDS011;1588;50.892;7.082;2023-03-04T16:00:45;5.57;;;2.90;;
3155;SDS011;1588;50.892;7.082;2023-03-04T16:05:48;10.27;;;3.07;;
3155;SDS011;1588;50.892;7.082;2023-03-04T16:10:52;8.10;;;3.50;;
3155;SDS011;1588;50.892;7.082;2023-03-04T16:15:56;7.10;;;3.57;;
3155;SDS011;1588;50.892;7.082;2023-03-04T16:20:58;10.70;;;3.83;;
3155;SDS011;1588;50.892;7.082;2023-03-04T16:26:00;9.97;;;3.63;;
3155;SDS011;1588;50.892;7.082;2023-03-04T16:31:04;5.97;;;3.23;;
3155;SDS011;1588;50.892;7.082;2023-03-04T16:36:09;8.33;;;4.47;;
3155;SDS011;1588;50.892;7.082;2023-03-04T16:41:15;12.63;;;4.57;;
3155;SDS011;1588;50.892;7.082;2023-03-04T16:46:21;7.33;;;4.53;;
3155;SDS011;1588;50.892;7.082;2023-03-04T16:51:33;8.63;;;4.27;;
3155;SDS011;1588;50.892;7.082;2023-03-04T16:56:55;8.60;;;4.83;;
3155;SDS011;1588;50.892;7.082;2023-03-04T17:01:59;9.70;;;4.70;;
3155;SDS011;1588;50.892;7.082;2023-03-04T17:07:04;7.03;;;4.57;;
3155;SDS011;1588;50.892;7.082;2023-03-04T17:12:07;12.97;;;5.27;;
3155;SDS011;1588;50.892;7.082;2023-03-04T17:17:13;9.83;;;5.20;;
3155;SDS011;1588;50.892;7.082;2023-03-04T17:22:15;15.77;;;5.40;;
3155;SDS011;1588;50.892;7.082;2023-03-04T17:27:18;10.80;;;5.43;;
3155;SDS011;1588;50.892;7.082;2023-03-04T17:32:22;9.87;;;5.30;;
3155;SDS011;1588;50.892;7.082;2023-03-04T17:37:25;14.00;;;6.47;;
3155;SDS011;1588;50.892;7.082;2023-03-04T17:42:28;13.87;;;6.00;;
3155;SDS011;1588;50.892;7.082;2023-03-04T17:47:31;16.00;;;6.13;;
3155;SDS011;1588;50.892;7.082;2023-03-04T17:52:33;19.17;;;7.10;;
3155;SDS011;1588;50.892;7.082;2023-03-04T17:57:36;23.10;;;7.53;;
3155;SDS011;1588;50.892;7.082;2023-03-04T18:02:40;17.00;;;7.40;;
3155;SDS011;1588;50.892;7.082;2023-03-04T18:07:42;14.17;;;6.17;;
3155;SDS011;1588;50.892;7.082;2023-03-04T18:12:44;30.67;;;9.33;;
3155;SDS011;1588;50.892;7.082;2023-03-04T18:17:49;25.77;;;8.80;;
3155;SDS011;1588;50.892;7.082;2023-03-04T18:22:51;15.50;;;6.90;;
3155;SDS011;1588;50.892;7.082;2023-03-04T18:27:53;15.57;;;7.03;;
3155;SDS011;1588;50.892;7.082;2023-03-04T18:32:57;17.43;;;7.00;;
3155;SDS011;1588;50.892;7.082;2023-03-04T18:38:01;18.70;;;6.90;;
3155;SDS011;1588;50.892;7.082;2023-03-04T18:43:03;18.50;;;7.73;;
3155;SDS011;1588;50.892;7.082;2023-03-04T18:48:07;26.73;;;8.07;;
3155;SDS011;1588;50.892;7.082;2023-03-04T18:53:10;29.60;;;8.20;;
3155;SDS011;1588;50.892;7.082;2023-03-04T18:58:12;30.53;;;8.90;;
3155;SDS011;1588;50.892;7.082;2023-03-04T19:03:16;42.53;;;8.87;;
3155;SDS011;1588;50.892;7.082;2023-03-04T19:08:21;23.43;;;7.40;;
3155;SDS011;1588;50.892;7.082;2023-03-04T19:13:23;14.57;;;6.40;;
3155;SDS011;1588;50.892;7.082;2023-03-04T19:18:27;14.40;;;6.30;;
3155;SDS011;1588;50.892;7.082;2023-03-04T19:23:33;16.83;;;6.60;;
3155;SDS011;1588;50.892;7.082;2023-03-04T19:28:35;17.17;;;7.33;;
3155;SDS011;1588;50.892;7.082;2023-03-04T19:33:39;22.77;;;9.63;;
3155;SDS011;1588;50.892;7.082;2023-03-04T19:38:42;15.97;;;8.90;;
3155;SDS011;1588;50.892;7.082;2023-03-04T19:43:44;24.17;;;9.23;;
3155;SDS011;1588;50.892;7.082;2023-03-04T19:48:50;44.00;;;11.60;;
3155;SDS011;1588;50.892;7.082;2023-03-04T19:53:52;20.83;;;7.03;;
3155;SDS011;1588;50.892;7.082;2023-03-04T19:58:56;28.47;;;5.23;;
3155;SDS011;1588;50.892;7.082;2023-03-04T20:04:00;10.30;;;3.70;;
3155;SDS011;1588;50.892;7.082;2023-03-04T20:09:04;9.13;;;2.37;;
3155;SDS011;1588;50.892;7.082;2023-03-04T20:14:06;13.63;;;3.10;;
3155;SDS011;1588;50.892;7.082;2023-03-04T20:19:10;6.70;;;2.70;;
3155;SDS011;1588;50.892;7.082;2023-03-04T20:24:13;11.50;;;2.80;;
3155;SDS011;1588;50.892;7.082;2023-03-04T20:29:15;13.07;;;3.27;;
3155;SDS011;1588;50.892;7.082;2023-03-04T20:34:20;11.00;;;4.13;;
3155;SDS011;1588;50.892;7.082;2023-03-04T20:39:23;9.03;;;3.10;;
3155;SDS011;1588;50.892;7.082;2023-03-04T20:44:26;11.60;;;3.53;;
3155;SDS011;1588;50.892;7.082;2023-03-04T20:49:33;14.20;;;4.50;;
3155;SDS011;1588;50.892;7.082;2023-03-04T20:54:36;20.40;;;4.20;;
3155;SDS011;1588;50.892;7.082;2023-03-04T20:59:39;28.50;;;8.07;;
3155;SDS011;1588;50.892;7.082;2023-03-04T21:04:43;27.90;;;9.13;;
3155;SDS011;1588;50.892;7.082;2023-03-04T21:09:46;15.57;;;5.87;;
3155;SDS011;1588;50.892;7.082;2023-03-04T21:14:48;31.67;;;8.90;;
3155;SDS011;1588;50.892;7.082;2023-03-04T21:19:51;44.00;;;13.67;;
3155;SDS011;1588;50.892;7.082;2023-03-04T21:24:54;20.50;;;6.20;;
3155;SDS011;1588;50.892;7.082;2023-03-04T21:29:56;21.07;;;7.80;;
3155;SDS011;1588;50.892;7.082;2023-03-04T21:35:00;19.83;;;7.53;;
3155;SDS011;1588;50.892;7.082;2023-03-04T21:40:04;30.90;;;8.50;;
3155;SDS011;1588;50.892;7.082;2023-03-04T21:45:09;18.57;;;7.90;;
3155;SDS011;1588;50.892;7.082;2023-03-04T21:50:13;30.67;;;10.30;;
3155;SDS011;1588;50.892;7.082;2023-03-04T21:55:15;20.87;;;7.80;;
3155;SDS011;1588;50.892;7.082;2023-03-04T22:00:18;27.57;;;10.63;;
3155;SDS011;1588;50.892;7.082;2023-03-04T22:05:33;26.83;;;9.93;;
3155;SDS011;1588;50.892;7.082;2023-03-04T22:10:39;27.33;;;8.43;;
3155;SDS011;1588;50.892;7.082;2023-03-04T22:15:42;27.40;;;8.27;;
3155;SDS011;1588;50.892;7.082;2023-03-04T22:20:46;13.50;;;5.77;;
3155;SDS011;1588;50.892;7.082;2023-03-04T22:25:48;11.20;;;3.30;;
3155;SDS011;1588;50.892;7.082;2023-03-04T22:30:50;7.40;;;3.17;;
3155;SDS011;1588;50.892;7.082;2023-03-04T22:35:54;16.33;;;3.20;;
3155;SDS011;1588;50.892;7.082;2023-03-04T22:40:56;12.20;;;3.00;;
3155;SDS011;1588;50.892;7.082;2023-03-04T22:45:59;8.73;;;2.80;;
3155;SDS011;1588;50.892;7.082;2023-03-04T22:51:04;10.37;;;2.80;;
3155;SDS011;1588;50.892;7.082;2023-03-04T22:56:08;23.00;;;3.40;;
3155;SDS011;1588;50.892;7.082;2023-03-04T23:01:11;10.50;;;3.20;;
3155;SDS011;1588;50.892;7.082;2023-03-04T23:06:18;22.10;;;4.90;;
3155;SDS011;1588;50.892;7.082;2023-03-04T23:11:34;6.63;;;3.40;;
3155;SDS011;1588;50.892;7.082;2023-03-04T23:16:38;9.07;;;3.67;;
3155;SDS011;1588;50.892;7.082;2023-03-04T23:21:45;22.90;;;4.17;;
3155;SDS011;1588;50.892;7.082;2023-03-04T23:26:47;14.70;;;3.83;;
3155;SDS011;1588;50.892;7.082;2023-03-04T23:31:51;9.83;;;3.77;;
3155;SDS011;1588;50.892;7.082;2023-03-04T23:37:05;18.27;;;3.50;;
3155;SDS011;1588;50.892;7.082;2023-03-04T23:42:07;9.90;;;2.67;;
3155;SDS011;1588;50.892;7.082;2023-03-04T23:47:16;11.13;;;2.77;;
3155;SDS011;1588;50.892;7.082;2023-03-04T23:52:32;9.20;;;3.53;;
3155;SDS011;1588;50.892;7.082;2023-03-04T23:57:35;21.63;;;5.00;;
